createdAt,value
2022-11-18T00:01:32.367Z,1.40
2022-11-18T00:04:00.831Z,1.13
2022-11-18T00:06:31.399Z,1.13
2022-11-18T00:09:01.716Z,1.40
2022-11-18T00:11:48.482Z,1.40
2022-11-18T00:14:23.605Z,0.80
2022-11-18T00:16:55.398Z,1.03
2022-11-18T00:19:27.315Z,1.10
2022-11-18T00:21:56.685Z,1.20
2022-11-18T00:24:27.197Z,1.13
2022-11-18T00:26:56.472Z,1.73
2022-11-18T00:29:28.108Z,1.43
2022-11-18T00:31:57.069Z,2.40
2022-11-18T00:34:27.931Z,1.70
2022-11-18T00:36:56.399Z,1.90
2022-11-18T00:39:26.283Z,1.60
2022-11-18T00:42:26.675Z,2.23
2022-11-18T00:44:55.055Z,1.80
2022-11-18T00:47:23.499Z,2.40
2022-11-18T00:49:51.845Z,2.40
2022-11-18T00:52:20.298Z,2.77
2022-11-18T00:54:50.073Z,4.10
2022-11-18T00:57:18.492Z,2.90
2022-11-18T00:59:47.009Z,3.70
2022-11-18T01:02:15.441Z,3.30
2022-11-18T01:04:43.909Z,2.80
2022-11-18T01:07:12.436Z,2.10
2022-11-18T01:09:40.968Z,2.77
2022-11-18T01:12:29.752Z,2.20
2022-11-18T01:14:59.854Z,2.23
2022-11-18T01:17:31.318Z,2.10
2022-11-18T01:20:00.015Z,2.13
2022-11-18T01:22:28.850Z,1.70
2022-11-18T01:24:57.316Z,1.50
2022-11-18T01:27:27.129Z,1.50
2022-11-18T01:29:55.617Z,1.60
2022-11-18T01:32:25.534Z,1.77
2022-11-18T01:34:54.362Z,1.50
2022-11-18T01:37:22.937Z,1.50
2022-11-18T01:39:51.447Z,1.57
2022-11-18T01:42:20.036Z,1.97
2022-11-18T01:45:22.814Z,1.40
2022-11-18T01:47:56.832Z,1.50
2022-11-18T01:50:26.201Z,2.03
2022-11-18T01:52:57.359Z,2.10
2022-11-18T01:55:30.869Z,1.53
2022-11-18T01:58:06.817Z,1.57
2022-11-18T02:00:36.911Z,1.70
2022-11-18T02:03:06.174Z,1.50
2022-11-18T02:05:36.466Z,1.57
2022-11-18T02:08:07.758Z,1.40
2022-11-18T02:10:36.239Z,1.57
2022-11-18T02:13:04.780Z,1.53
2022-11-18T02:15:50.658Z,1.60
2022-11-18T02:18:32.309Z,2.00
2022-11-18T02:21:15.473Z,1.60
2022-11-18T02:24:29.501Z,1.20
2022-11-18T02:27:49.867Z,1.77
2022-11-18T02:30:20.931Z,1.30
2022-11-18T02:32:56.384Z,1.30
2022-11-18T02:35:30.183Z,1.50
2022-11-18T02:38:02.485Z,1.30
2022-11-18T02:40:35.191Z,1.23
2022-11-18T02:43:09.441Z,1.57
2022-11-18T02:45:44.270Z,1.20
2022-11-18T02:48:14.532Z,1.23
2022-11-18T02:50:45.802Z,1.57
2022-11-18T02:53:18.275Z,1.10
2022-11-18T02:55:47.461Z,1.20
2022-11-18T02:58:20.248Z,1.20
2022-11-18T03:00:56.378Z,1.10
2022-11-18T03:03:32.054Z,1.10
2022-11-18T03:06:10.997Z,1.20
2022-11-18T03:08:46.009Z,1.37
2022-11-18T03:11:20.007Z,1.17
2022-11-18T03:14:07.558Z,2.10
2022-11-18T03:16:43.585Z,1.73
2022-11-18T03:19:21.586Z,1.60
2022-11-18T03:22:04.216Z,1.30
2022-11-18T03:24:34.982Z,1.77
2022-11-18T03:27:12.966Z,1.23
2022-11-18T03:29:46.773Z,1.37
2022-11-18T03:32:21.506Z,1.30
2022-11-18T03:34:53.171Z,1.70
2022-11-18T03:37:23.463Z,1.27
2022-11-18T03:39:56.132Z,1.40
2022-11-18T03:42:30.413Z,1.50
2022-11-18T03:45:06.846Z,1.40
2022-11-18T03:47:41.808Z,1.47
2022-11-18T03:50:18.495Z,1.53
2022-11-18T03:52:48.771Z,1.30
2022-11-18T03:55:24.588Z,1.30
2022-11-18T03:57:58.887Z,1.20
2022-11-18T04:00:33.919Z,1.37
2022-11-18T04:03:03.771Z,1.13
2022-11-18T04:05:35.033Z,1.00
2022-11-18T04:08:06.827Z,0.70
2022-11-18T04:10:41.655Z,0.90
2022-11-18T04:13:16.742Z,1.47
2022-11-18T04:15:45.481Z,0.90
2022-11-18T04:18:15.246Z,0.90
2022-11-18T04:20:43.572Z,0.80
2022-11-18T04:23:12.040Z,0.80
2022-11-18T04:25:40.408Z,0.90
2022-11-18T04:28:09.045Z,0.80
2022-11-18T04:30:37.581Z,0.87
2022-11-18T04:33:06.288Z,0.80
2022-11-18T04:35:36.049Z,1.47
2022-11-18T04:38:05.109Z,2.07
2022-11-18T04:40:33.679Z,2.50
2022-11-18T04:43:02.014Z,2.07
2022-11-18T04:45:30.421Z,1.30
2022-11-18T04:48:03.244Z,1.40
2022-11-18T04:50:32.206Z,1.00
2022-11-18T04:53:01.980Z,1.27
2022-11-18T04:55:30.392Z,1.13
2022-11-18T04:57:58.747Z,1.00
2022-11-18T05:00:27.180Z,1.20
2022-11-18T05:02:55.574Z,1.33
2022-11-18T05:05:23.991Z,1.23
2022-11-18T05:07:52.547Z,0.83
2022-11-18T05:10:22.358Z,1.40
2022-11-18T05:12:49.738Z,1.63
2022-11-18T05:15:18.604Z,1.33
2022-11-18T05:17:47.363Z,1.77
2022-11-18T05:20:15.911Z,3.10
2022-11-18T05:22:44.291Z,3.03
2022-11-18T05:25:12.695Z,3.07
2022-11-18T05:27:42.434Z,4.07
2022-11-18T05:30:12.682Z,3.70
2022-11-18T05:32:41.023Z,4.80
2022-11-18T05:35:10.405Z,4.43
2022-11-18T05:37:38.741Z,5.83
2022-11-18T05:40:09.311Z,4.00
2022-11-18T05:42:55.061Z,3.23
2022-11-18T05:45:24.828Z,2.60
2022-11-18T05:48:04.138Z,2.30
2022-11-18T05:50:34.288Z,1.80
2022-11-18T05:53:03.220Z,1.77
2022-11-18T05:55:37.123Z,1.90
2022-11-18T05:58:05.515Z,1.53
2022-11-18T06:00:35.710Z,1.57
2022-11-18T06:03:12.744Z,1.70
2022-11-18T06:05:41.208Z,1.63
2022-11-18T06:08:13.396Z,1.40
2022-11-18T06:10:44.588Z,1.50
2022-11-18T06:13:19.044Z,1.20
2022-11-18T06:15:49.006Z,0.90
2022-11-18T06:18:23.860Z,0.93
2022-11-18T06:20:54.685Z,1.83
2022-11-18T06:23:23.660Z,2.20
2022-11-18T06:25:52.153Z,1.57
2022-11-18T06:28:21.531Z,1.73
2022-11-18T06:30:51.317Z,6.93
2022-11-18T06:33:19.758Z,10.00
2022-11-18T06:35:48.207Z,8.90
2022-11-18T06:38:16.584Z,8.20
2022-11-18T06:40:44.994Z,5.43
2022-11-18T06:43:31.083Z,4.53
2022-11-18T06:46:19.005Z,2.70
2022-11-18T06:48:47.880Z,2.10
2022-11-18T06:51:16.389Z,2.00
2022-11-18T06:53:45.003Z,1.73
2022-11-18T06:56:16.206Z,1.67
2022-11-18T06:58:44.646Z,1.93
2022-11-18T07:01:17.216Z,2.23
2022-11-18T07:03:47.868Z,2.03
2022-11-18T07:06:22.447Z,2.03
2022-11-18T07:08:51.677Z,1.93
2022-11-18T07:11:25.470Z,2.07
2022-11-18T07:13:54.209Z,2.13
2022-11-18T07:16:26.376Z,2.00
2022-11-18T07:18:56.079Z,2.00
2022-11-18T07:21:27.286Z,2.60
2022-11-18T07:23:56.590Z,2.57
2022-11-18T07:26:25.263Z,2.73
2022-11-18T07:28:55.099Z,2.63
2022-11-18T07:31:24.832Z,3.70
2022-11-18T07:33:54.689Z,3.10
2022-11-18T07:36:29.647Z,5.03
2022-11-18T07:39:01.943Z,3.33
2022-11-18T07:41:31.631Z,2.97
2022-11-18T07:44:02.462Z,2.50
2022-11-18T07:46:34.791Z,2.57
2022-11-18T07:49:05.740Z,2.73
2022-11-18T07:51:37.326Z,4.13
2022-11-18T07:54:08.975Z,3.57
2022-11-18T07:56:37.302Z,4.10
2022-11-18T07:59:06.022Z,3.63
2022-11-18T08:01:36.164Z,3.87
2022-11-18T08:04:09.848Z,2.27
2022-11-18T08:06:38.919Z,1.53
2022-11-18T08:09:08.474Z,1.97
2022-11-18T08:11:37.367Z,2.33
2022-11-18T08:14:05.997Z,2.40
2022-11-18T08:16:35.757Z,2.20
2022-11-18T08:19:04.317Z,1.53
2022-11-18T08:21:32.714Z,2.10
2022-11-18T08:24:01.108Z,3.43
2022-11-18T08:26:29.643Z,4.20
2022-11-18T08:28:59.145Z,3.67
2022-11-18T08:31:30.554Z,4.17
2022-11-18T08:34:03.181Z,2.90
2022-11-18T08:36:34.199Z,2.00
2022-11-18T08:39:05.175Z,1.70
2022-11-18T08:41:36.374Z,1.67
2022-11-18T08:44:06.752Z,1.70
2022-11-18T08:46:35.287Z,1.50
2022-11-18T08:49:05.163Z,1.10
2022-11-18T08:51:33.592Z,1.30
2022-11-18T08:54:01.963Z,1.10
2022-11-18T08:56:30.940Z,1.23
2022-11-18T08:58:59.678Z,1.00
2022-11-18T09:01:28.272Z,1.03
2022-11-18T09:03:58.727Z,0.83
2022-11-18T09:06:28.624Z,1.00
2022-11-18T09:09:00.645Z,1.17
2022-11-18T09:11:31.799Z,1.13
2022-11-18T09:14:53.452Z,1.93
2022-11-18T09:16:49.515Z,1.60
2022-11-18T09:19:45.466Z,1.43
2022-11-18T09:22:09.760Z,1.10
2022-11-18T09:24:38.208Z,0.83
2022-11-18T09:27:12.362Z,1.40
2022-11-18T09:29:44.923Z,1.90
2022-11-18T09:32:13.315Z,1.40
2022-11-18T09:34:41.695Z,2.10
2022-11-18T09:37:11.470Z,4.33
2022-11-18T09:39:39.868Z,3.13
2022-11-18T09:42:30.246Z,1.87
2022-11-18T09:45:18.172Z,3.23
2022-11-18T09:47:50.091Z,3.60
2022-11-18T09:50:49.148Z,4.10
2022-11-18T09:53:20.227Z,3.47
2022-11-18T09:55:50.361Z,3.20
2022-11-18T09:58:25.991Z,4.63
2022-11-18T10:00:54.828Z,4.87
2022-11-18T10:03:29.477Z,4.07
2022-11-18T10:06:04.994Z,3.40
2022-11-18T10:08:42.502Z,3.67
2022-11-18T10:11:16.601Z,3.20
2022-11-18T10:13:56.861Z,3.07
2022-11-18T10:16:42.077Z,2.30
2022-11-18T10:19:23.988Z,2.00
2022-11-18T10:22:11.730Z,2.17
2022-11-18T10:24:52.366Z,1.67
2022-11-18T10:27:21.832Z,1.90
2022-11-18T10:29:55.496Z,1.67
2022-11-18T10:32:24.061Z,2.20
2022-11-18T10:34:54.508Z,2.60
2022-11-18T10:37:39.044Z,7.00
2022-11-18T10:40:27.860Z,4.27
2022-11-18T10:42:56.759Z,7.07
2022-11-18T10:45:29.686Z,5.90
2022-11-18T10:48:08.288Z,3.30
2022-11-18T10:50:39.638Z,3.63
2022-11-18T10:53:29.861Z,3.57
2022-11-18T10:56:01.969Z,2.47
2022-11-18T10:58:33.584Z,2.30
2022-11-18T11:01:21.628Z,3.43
2022-11-18T11:04:01.322Z,3.77
2022-11-18T11:06:33.922Z,3.13
2022-11-18T11:09:07.995Z,2.80
2022-11-18T11:11:43.247Z,2.67
2022-11-18T11:14:21.664Z,2.27
2022-11-18T11:16:59.921Z,2.70
2022-11-18T11:19:38.561Z,2.77
2022-11-18T11:22:13.555Z,2.37
2022-11-18T11:24:42.279Z,2.50
2022-11-18T11:30:47.522Z,2.93
2022-11-18T11:33:32.292Z,2.87
2022-11-18T11:36:41.220Z,3.13
2022-11-18T11:39:47.847Z,3.13
2022-11-18T11:42:32.563Z,2.60
2022-11-18T11:45:25.648Z,2.57
2022-11-18T11:48:18.311Z,2.83
2022-11-18T11:51:03.487Z,2.90
2022-11-18T11:54:25.812Z,3.17
2022-11-18T11:57:00.245Z,2.70
2022-11-18T11:59:36.236Z,4.10
2022-11-18T12:02:41.946Z,3.93
2022-11-18T12:05:23.214Z,2.90
2022-11-18T12:07:56.815Z,2.57
2022-11-18T12:10:42.783Z,2.50
2022-11-18T12:13:41.626Z,2.90
2022-11-18T12:16:22.514Z,2.27
2022-11-18T12:18:59.401Z,2.37
2022-11-18T12:21:58.318Z,2.43
2022-11-18T12:24:33.292Z,2.80
2022-11-18T12:27:04.743Z,2.60
2022-11-18T12:29:56.314Z,4.00
2022-11-18T12:32:42.206Z,3.20
2022-11-18T12:35:27.997Z,3.40
2022-11-18T12:38:02.173Z,2.50
2022-11-18T12:40:40.964Z,2.97
2022-11-18T12:44:05.598Z,2.33
2022-11-18T12:46:52.450Z,2.60
2022-11-18T12:50:09.373Z,2.73
2022-11-18T12:52:53.856Z,2.53
2022-11-18T12:55:38.996Z,2.60
2022-11-18T12:58:24.543Z,2.40
2022-11-18T13:00:55.978Z,2.20
2022-11-18T13:03:28.861Z,2.10
2022-11-18T13:06:08.818Z,2.00
2022-11-18T13:08:38.921Z,1.93
2022-11-18T13:11:33.819Z,2.40
2022-11-18T13:14:21.716Z,2.40
2022-11-18T13:17:07.243Z,1.70
2022-11-18T13:19:35.931Z,1.60
2022-11-18T13:22:22.683Z,1.93
2022-11-18T13:24:53.828Z,1.57
2022-11-18T13:27:36.944Z,1.27
2022-11-18T13:30:12.204Z,1.17
2022-11-18T13:32:45.555Z,1.20
2022-11-18T13:35:18.052Z,0.93
2022-11-18T13:37:53.022Z,0.83
2022-11-18T13:40:26.581Z,0.80
2022-11-18T13:42:55.440Z,0.87
2022-11-18T13:45:28.134Z,1.00
2022-11-18T13:48:03.623Z,1.10
2022-11-18T13:50:37.096Z,0.90
2022-11-18T13:53:19.100Z,0.70
2022-11-18T13:55:53.405Z,1.00
2022-11-18T13:59:02.789Z,0.80
2022-11-18T14:01:28.401Z,1.10
2022-11-18T14:04:01.298Z,1.00
2022-11-18T14:06:32.578Z,0.80
2022-11-18T14:09:18.106Z,1.20
2022-11-18T14:12:00.795Z,1.00
2022-11-18T14:14:34.843Z,0.97
2022-11-18T14:17:18.237Z,0.90
2022-11-18T14:19:49.126Z,1.00
2022-11-18T14:22:21.706Z,0.80
2022-11-18T14:24:59.026Z,1.30
2022-11-18T14:27:37.910Z,1.10
2022-11-18T14:30:36.524Z,1.50
2022-11-18T14:33:20.857Z,1.80
2022-11-18T14:35:56.377Z,1.93
2022-11-18T14:41:45.186Z,2.97
2022-11-18T14:44:15.988Z,2.60
2022-11-18T14:46:48.054Z,2.87
2022-11-18T14:49:19.815Z,5.00
2022-11-18T14:51:48.741Z,3.60
2022-11-18T14:54:25.406Z,3.27
2022-11-18T14:56:58.527Z,2.17
2022-11-18T14:59:28.608Z,2.40
2022-11-18T15:01:58.583Z,2.40
2022-11-18T15:04:27.565Z,2.80
2022-11-18T15:06:56.265Z,5.57
2022-11-18T15:09:24.998Z,5.57
2022-11-18T15:11:53.437Z,4.43
2022-11-18T15:14:22.088Z,3.87
2022-11-18T15:16:52.041Z,4.00
2022-11-18T15:19:20.514Z,4.63
2022-11-18T15:21:49.040Z,6.83
2022-11-18T15:24:17.799Z,7.23
2022-11-18T15:26:48.405Z,9.40
2022-11-18T15:29:20.046Z,6.77
2022-11-18T15:31:49.409Z,7.93
2022-11-18T15:34:22.020Z,10.50
2022-11-18T15:36:51.009Z,12.70
2022-11-18T15:39:19.550Z,11.13
2022-11-18T15:41:48.013Z,11.23
2022-11-18T15:44:17.336Z,9.50
2022-11-18T15:46:48.011Z,7.30
2022-11-18T15:49:19.425Z,6.40
2022-11-18T15:51:47.972Z,4.73
2022-11-18T15:54:17.151Z,5.80
2022-11-18T15:56:46.241Z,4.60
2022-11-18T15:59:16.233Z,5.70
2022-11-18T16:01:47.073Z,5.17
2022-11-18T16:04:19.474Z,5.13
2022-11-18T16:06:48.818Z,9.17
2022-11-18T16:09:18.619Z,10.83
2022-11-18T16:12:04.886Z,12.20
2022-11-18T16:14:33.334Z,11.50
2022-11-18T16:17:01.681Z,11.90
2022-11-18T16:19:33.623Z,10.03
2022-11-18T16:22:02.141Z,7.43
2022-11-18T16:24:31.461Z,6.03
2022-11-18T16:26:59.875Z,6.30
2022-11-18T16:29:28.283Z,6.33
2022-11-18T16:31:56.658Z,6.43
2022-11-18T16:34:27.423Z,5.30
2022-11-18T16:37:16.796Z,4.63
2022-11-18T16:39:45.493Z,4.30
2022-11-18T16:42:13.890Z,4.37
2022-11-18T16:44:43.724Z,3.50
2022-11-18T16:47:15.117Z,2.67
2022-11-18T16:49:44.550Z,3.10
2022-11-18T16:52:13.249Z,3.00
2022-11-18T16:54:45.967Z,3.10
2022-11-18T16:57:15.312Z,3.53
2022-11-18T16:59:43.793Z,3.20
2022-11-18T17:02:14.422Z,3.63
2022-11-18T17:04:43.036Z,3.57
2022-11-18T17:07:11.568Z,3.80
2022-11-18T17:09:40.144Z,3.60
2022-11-18T17:12:10.369Z,3.20
2022-11-18T17:14:40.230Z,3.40
2022-11-18T17:17:09.181Z,3.57
2022-11-18T17:19:37.765Z,3.30
2022-11-18T17:22:08.673Z,3.10
2022-11-18T17:24:37.428Z,2.80
2022-11-18T17:27:05.929Z,4.63
2022-11-18T17:29:35.979Z,4.77
2022-11-18T17:32:04.388Z,3.40
2022-11-18T17:34:32.860Z,3.73
2022-11-18T17:37:06.488Z,3.93
2022-11-18T17:39:35.525Z,5.47
2022-11-18T17:42:17.640Z,6.60
2022-11-18T17:44:47.554Z,6.70
2022-11-18T17:47:16.046Z,10.03
2022-11-18T17:49:44.593Z,8.00
2022-11-18T17:52:13.033Z,7.37
2022-11-18T17:54:41.517Z,6.70
2022-11-18T17:57:10.011Z,5.60
2022-11-18T17:59:38.896Z,5.00
2022-11-18T18:02:10.426Z,5.47
2022-11-18T18:04:38.953Z,5.37
2022-11-18T18:07:07.618Z,5.17
2022-11-18T18:09:36.110Z,6.47
2022-11-18T18:12:25.700Z,6.03
2022-11-18T18:14:53.185Z,3.60
2022-11-18T18:17:23.115Z,4.67
2022-11-18T18:19:51.680Z,4.03
2022-11-18T18:22:20.074Z,4.73
2022-11-18T18:24:48.643Z,5.57
2022-11-18T18:27:17.179Z,7.37
2022-11-18T18:29:45.725Z,7.40
2022-11-18T18:32:16.679Z,7.17
2022-11-18T18:34:46.809Z,7.87
2022-11-18T18:37:15.353Z,6.73
2022-11-18T18:39:43.791Z,7.40
2022-11-18T18:42:12.297Z,7.37
2022-11-18T18:45:01.151Z,7.37
2022-11-18T18:47:29.784Z,8.33
2022-11-18T18:49:59.541Z,8.30
2022-11-18T18:52:28.057Z,7.93
2022-11-18T18:54:56.588Z,8.33
2022-11-18T18:57:25.173Z,7.40
2022-11-18T18:59:53.726Z,7.57
2022-11-18T19:02:22.307Z,8.07
2022-11-18T19:04:50.932Z,7.57
2022-11-18T19:07:20.952Z,8.27
2022-11-18T19:09:49.475Z,8.50
2022-11-18T19:12:35.113Z,9.50
2022-11-18T19:15:03.643Z,8.23
2022-11-18T19:17:32.577Z,7.07
2022-11-18T19:20:18.776Z,8.17
2022-11-18T19:22:48.623Z,7.63
2022-11-18T19:25:17.611Z,8.70
2022-11-18T19:27:46.115Z,10.33
2022-11-18T19:30:15.102Z,9.00
2022-11-18T19:32:44.035Z,8.97
2022-11-18T19:35:12.851Z,7.87
2022-11-18T19:37:41.650Z,7.63
2022-11-18T19:40:12.998Z,5.70
2022-11-18T19:42:42.704Z,3.87
2022-11-18T19:45:12.657Z,5.20
2022-11-18T19:47:41.301Z,4.90
2022-11-18T19:50:11.038Z,4.63
2022-11-18T19:52:39.449Z,4.97
2022-11-18T19:55:08.643Z,4.40
2022-11-18T19:57:38.512Z,4.70
2022-11-18T20:00:08.973Z,4.77
2022-11-18T20:02:42.057Z,3.73
2022-11-18T20:05:28.069Z,3.60
2022-11-18T20:07:57.032Z,3.73
2022-11-18T20:10:25.685Z,3.33
2022-11-18T20:12:56.424Z,3.33
2022-11-18T20:15:24.884Z,3.27
2022-11-18T20:17:53.398Z,2.97
2022-11-18T20:20:22.132Z,3.13
2022-11-18T20:22:50.819Z,2.97
2022-11-18T20:25:19.518Z,2.87
2022-11-18T20:27:48.097Z,2.90
2022-11-18T20:30:19.021Z,2.70
2022-11-18T20:32:47.613Z,3.00
2022-11-18T20:35:16.486Z,2.60
2022-11-18T20:37:45.244Z,2.90
2022-11-18T20:40:14.253Z,2.40
2022-11-18T20:43:00.192Z,3.47
2022-11-18T20:45:30.217Z,2.90
2022-11-18T20:47:58.668Z,4.53
2022-11-18T20:50:27.161Z,4.23
2022-11-18T20:52:55.680Z,4.50
2022-11-18T20:55:24.222Z,3.80
2022-11-18T20:57:52.620Z,3.63
2022-11-18T21:00:21.631Z,3.60
2022-11-18T21:02:51.711Z,3.47
2022-11-18T21:05:20.245Z,6.60
2022-11-18T21:07:50.554Z,5.13
2022-11-18T21:10:19.334Z,4.80
2022-11-18T21:13:01.810Z,5.20
2022-11-18T21:15:30.295Z,4.47
2022-11-18T21:18:00.207Z,4.70
2022-11-18T21:20:46.052Z,5.03
2022-11-18T21:23:14.482Z,4.40
2022-11-18T21:25:43.292Z,4.53
2022-11-18T21:28:12.055Z,3.97
2022-11-18T21:30:40.579Z,3.90
2022-11-18T21:33:10.509Z,3.93
2022-11-18T21:35:38.970Z,3.80
2022-11-18T21:38:07.373Z,3.47
2022-11-18T21:40:35.844Z,4.30
2022-11-18T21:43:04.347Z,5.70
2022-11-18T21:45:33.217Z,4.70
2022-11-18T21:48:01.695Z,4.47
2022-11-18T21:50:31.871Z,3.60
2022-11-18T21:53:00.311Z,3.20
2022-11-18T21:55:29.078Z,3.60
2022-11-18T21:58:02.669Z,3.37
2022-11-18T22:00:35.070Z,3.57
2022-11-18T22:03:04.573Z,2.93
2022-11-18T22:05:34.400Z,2.93
2022-11-18T22:08:03.203Z,2.90
2022-11-18T22:10:31.810Z,2.47
2022-11-18T22:13:00.352Z,2.83
2022-11-18T22:15:28.897Z,2.63
2022-11-18T22:17:57.574Z,2.13
2022-11-18T22:20:26.564Z,2.30
2022-11-18T22:22:56.622Z,2.70
2022-11-18T22:25:25.064Z,3.13
2022-11-18T22:27:56.201Z,3.30
2022-11-18T22:30:25.340Z,2.90
2022-11-18T22:32:53.779Z,2.93
2022-11-18T22:35:22.212Z,3.70
2022-11-18T22:37:50.638Z,3.70
2022-11-18T22:40:20.967Z,3.43
2022-11-18T22:42:49.458Z,2.90
2022-11-18T22:45:18.187Z,2.90
2022-11-18T22:47:46.601Z,3.63
2022-11-18T22:50:15.484Z,2.67
2022-11-18T22:52:44.233Z,2.67
2022-11-18T22:55:13.130Z,3.00
2022-11-18T22:57:44.328Z,2.43
2022-11-18T23:00:14.681Z,3.70
2022-11-18T23:02:43.176Z,3.07
2022-11-18T23:05:11.932Z,2.87
2022-11-18T23:07:40.437Z,3.83
2022-11-18T23:10:09.688Z,2.83
2022-11-18T23:12:55.728Z,3.70
2022-11-18T23:15:25.594Z,3.47
2022-11-18T23:17:53.988Z,3.00
2022-11-18T23:20:22.521Z,3.67
2022-11-18T23:22:51.044Z,3.67
2022-11-18T23:25:19.446Z,3.60
2022-11-18T23:27:52.983Z,3.40
2022-11-18T23:30:24.239Z,3.83
2022-11-18T23:32:54.903Z,3.27
2022-11-18T23:35:24.506Z,3.63
2022-11-18T23:37:54.294Z,4.10
2022-11-18T23:40:22.707Z,3.87
2022-11-18T23:42:51.144Z,3.30
2022-11-18T23:45:19.582Z,4.50
2022-11-18T23:47:49.577Z,3.87
2022-11-18T23:50:18.144Z,3.80
2022-11-18T23:52:46.572Z,3.90
2022-11-18T23:55:15.084Z,3.90
2022-11-18T23:57:43.493Z,4.20
